This is the latest recevied weather packets stored in our database for station/object KF7OVD-WX. If no packets are shown the sender has not sent any weather packets the latest 10 day(s).
| Time | Temp. | Humidity | Pressure | Rain* | Wind** | Luminosity | Snow |
|---|---|---|---|---|---|---|---|
| 1778164825 | 11.67° C | 39% | 1025.7 hPa | 0 mm | - | - | - |
| 1778162121 | 2.78° C | 58% | 1025.7 hPa | 0 mm | - | - | - |
| 1778161839 | 2.22° C | 58% | 1025.7 hPa | 0 mm | - | - | - |
| 1778160325 | 0° C | 64% | 1025.5 hPa | 0 mm | - | - | - |
| 1778159418 | -1.11° C | 66% | 1025.4 hPa | 0 mm | - | - | - |
| 1778159116 | -1.11° C | 66% | 1025.4 hPa | 0 mm | - | - | - |
| 1778158819 | -1.67° C | 66% | 1025.4 hPa | 0 mm | - | - | - |
| 1778158235 | -1.67° C | 66% | 1025.4 hPa | 0 mm | - | - | - |
| 1778157327 | -1.67° C | 67% | 1025.3 hPa | 0 mm | - | - | - |
| 1778155833 | -1.67° C | 66% | 1025.3 hPa | 0 mm | - | - | - |
| 1778154926 | -1.67° C | 67% | 1025.4 hPa | 0 mm | - | - | - |
| 1778154624 | -2.22° C | 67% | 1025.4 hPa | 0 mm | - | - | - |
| 1778150127 | -1.11° C | 65% | 1025.7 hPa | 0 mm | - | - | - |
| 1778149240 | -1.11° C | 62% | 1025.7 hPa | 0 mm | - | - | - |
| 1778148918 | -0.56° C | 63% | 1025.7 hPa | 0 mm | - | - | - |
| 1778148616 | -0.56° C | 63% | 1025.5 hPa | 0 mm | - | - | - |
| 1778148332 | -0.56° C | 64% | 1025.5 hPa | 0 mm | - | - | - |
| 1778147123 | -0.56° C | 62% | 1025.5 hPa | 0 mm | - | - | - |
| 1778146841 | -0.56° C | 63% | 1025.5 hPa | 0 mm | - | - | - |
| 1778145931 | -0.56° C | 61% | 1025.5 hPa | 0 mm | - | - | - |
| 1778145328 | 0° C | 61% | 1025.4 hPa | 0 mm | - | - | - |
| 1778142331 | 1.11° C | 58% | 1025.7 hPa | 0 mm | - | - | - |
| 1778141123 | 1.67° C | 58% | 1025.7 hPa | 0 mm | - | - | - |
| 1778140821 | 1.67° C | 58% | 1025.5 hPa | 0 mm | - | - | - |
| 1778139026 | 2.22° C | 56% | 1025.7 hPa | 0 mm | - | - | - |
* Rain latest hour (hover to see other rain measurements)
** Current wind speed in m/s (hover to see current wind gust speed)